sensor_id;sensor_type;location;lat;lon;timestamp;pressure;altitude;pressure_sealevel;temperature;humidity
16613;BME280;8419;52.358;9.752;2023-08-30T00:02:17;100193.00;;;23.45;42.50
16613;BME280;8419;52.358;9.752;2023-08-30T00:05:04;100189.00;;;23.43;42.53
16613;BME280;8419;52.358;9.752;2023-08-30T00:07:50;100191.00;;;23.38;42.68
16613;BME280;8419;52.358;9.752;2023-08-30T00:10:36;100183.00;;;23.38;42.65
16613;BME280;8419;52.358;9.752;2023-08-30T00:13:23;100190.00;;;23.33;42.65
16613;BME280;8419;52.358;9.752;2023-08-30T00:16:09;100187.00;;;23.31;42.66
16613;BME280;8419;52.358;9.752;2023-08-30T00:18:54;100186.00;;;23.26;42.72
16613;BME280;8419;52.358;9.752;2023-08-30T00:21:40;100189.00;;;23.29;42.69
16613;BME280;8419;52.358;9.752;2023-08-30T00:24:25;100194.00;;;23.29;42.61
16613;BME280;8419;52.358;9.752;2023-08-30T00:27:12;100200.00;;;23.20;42.77
16613;BME280;8419;52.358;9.752;2023-08-30T00:29:57;100184.00;;;23.27;42.63
16613;BME280;8419;52.358;9.752;2023-08-30T00:32:42;100189.00;;;23.23;42.69
16613;BME280;8419;52.358;9.752;2023-08-30T00:35:30;100184.00;;;23.20;42.72
16613;BME280;8419;52.358;9.752;2023-08-30T00:38:15;100181.00;;;23.18;42.76
16613;BME280;8419;52.358;9.752;2023-08-30T00:41:01;100188.00;;;23.13;42.83
16613;BME280;8419;52.358;9.752;2023-08-30T00:43:47;100180.00;;;23.08;42.92
16613;BME280;8419;52.358;9.752;2023-08-30T00:46:33;100184.00;;;23.04;42.99
16613;BME280;8419;52.358;9.752;2023-08-30T00:49:20;100184.00;;;22.91;43.27
16613;BME280;8419;52.358;9.752;2023-08-30T00:52:07;100170.00;;;22.89;43.32
16613;BME280;8419;52.358;9.752;2023-08-30T00:54:54;100181.00;;;22.86;43.35
16613;BME280;8419;52.358;9.752;2023-08-30T00:57:40;100189.00;;;22.84;43.33
16613;BME280;8419;52.358;9.752;2023-08-30T01:00:26;100186.00;;;22.77;43.41
16613;BME280;8419;52.358;9.752;2023-08-30T01:03:12;100182.00;;;22.76;43.37
16613;BME280;8419;52.358;9.752;2023-08-30T01:05:58;100184.00;;;22.74;43.39
16613;BME280;8419;52.358;9.752;2023-08-30T01:08:44;100185.00;;;22.73;43.40
16613;BME280;8419;52.358;9.752;2023-08-30T01:11:35;100186.00;;;22.71;43.43
16613;BME280;8419;52.358;9.752;2023-08-30T01:14:24;100185.00;;;22.72;43.50
16613;BME280;8419;52.358;9.752;2023-08-30T01:17:14;100179.00;;;22.72;43.44
16613;BME280;8419;52.358;9.752;2023-08-30T01:20:05;100179.00;;;22.70;43.44
16613;BME280;8419;52.358;9.752;2023-08-30T01:22:59;100176.00;;;22.65;43.48
16613;BME280;8419;52.358;9.752;2023-08-30T01:25:53;100174.00;;;22.56;43.66
16613;BME280;8419;52.358;9.752;2023-08-30T01:28:40;100183.00;;;22.61;43.51
16613;BME280;8419;52.358;9.752;2023-08-30T01:31:26;100176.00;;;22.59;43.53
16613;BME280;8419;52.358;9.752;2023-08-30T01:34:15;100168.00;;;22.55;43.58
16613;BME280;8419;52.358;9.752;2023-08-30T01:37:00;100157.00;;;22.55;43.59
16613;BME280;8419;52.358;9.752;2023-08-30T01:39:48;100155.00;;;22.54;43.62
16613;BME280;8419;52.358;9.752;2023-08-30T01:42:35;100162.00;;;22.50;43.75
16613;BME280;8419;52.358;9.752;2023-08-30T01:45:22;100157.00;;;22.52;43.72
16613;BME280;8419;52.358;9.752;2023-08-30T01:48:10;100161.00;;;22.48;43.82
16613;BME280;8419;52.358;9.752;2023-08-30T01:50:56;100162.00;;;22.45;43.90
16613;BME280;8419;52.358;9.752;2023-08-30T01:53:44;100165.00;;;22.41;43.91
16613;BME280;8419;52.358;9.752;2023-08-30T01:56:31;100160.00;;;22.47;43.68
16613;BME280;8419;52.358;9.752;2023-08-30T01:59:16;100156.00;;;22.43;43.73
16613;BME280;8419;52.358;9.752;2023-08-30T02:02:02;100162.00;;;22.39;43.83
16613;BME280;8419;52.358;9.752;2023-08-30T02:04:49;100152.00;;;22.41;43.72
16613;BME280;8419;52.358;9.752;2023-08-30T02:07:38;100155.00;;;22.34;43.76
16613;BME280;8419;52.358;9.752;2023-08-30T02:10:27;100157.00;;;22.35;43.73
16613;BME280;8419;52.358;9.752;2023-08-30T02:13:13;100156.00;;;22.26;43.82
16613;BME280;8419;52.358;9.752;2023-08-30T02:16:01;100152.00;;;22.16;43.96
16613;BME280;8419;52.358;9.752;2023-08-30T02:18:48;100148.00;;;22.16;43.89
16613;BME280;8419;52.358;9.752;2023-08-30T02:21:34;100153.00;;;22.04;44.08
16613;BME280;8419;52.358;9.752;2023-08-30T02:24:19;100151.00;;;22.03;44.08
16613;BME280;8419;52.358;9.752;2023-08-30T02:27:05;100156.00;;;22.01;44.06
16613;BME280;8419;52.358;9.752;2023-08-30T02:29:51;100158.00;;;21.99;44.12
16613;BME280;8419;52.358;9.752;2023-08-30T02:32:36;100144.00;;;21.89;44.35
16613;BME280;8419;52.358;9.752;2023-08-30T02:35:22;100151.00;;;21.88;44.32
16613;BME280;8419;52.358;9.752;2023-08-30T02:38:09;100143.00;;;21.89;44.33
16613;BME280;8419;52.358;9.752;2023-08-30T02:40:54;100135.00;;;21.87;44.31
16613;BME280;8419;52.358;9.752;2023-08-30T02:43:40;100142.00;;;21.83;44.33
16613;BME280;8419;52.358;9.752;2023-08-30T02:46:25;100145.00;;;21.87;44.23
16613;BME280;8419;52.358;9.752;2023-08-30T02:49:11;100153.00;;;21.83;44.30
16613;BME280;8419;52.358;9.752;2023-08-30T02:51:56;100151.00;;;21.81;44.32
16613;BME280;8419;52.358;9.752;2023-08-30T02:54:42;100147.00;;;21.80;44.31
16613;BME280;8419;52.358;9.752;2023-08-30T02:57:28;100147.00;;;21.80;44.31
16613;BME280;8419;52.358;9.752;2023-08-30T03:00:16;100139.00;;;21.81;44.29
16613;BME280;8419;52.358;9.752;2023-08-30T03:03:02;100141.00;;;21.79;44.35
16613;BME280;8419;52.358;9.752;2023-08-30T03:05:47;100142.00;;;21.85;44.23
16613;BME280;8419;52.358;9.752;2023-08-30T03:08:33;100141.00;;;21.81;44.30
16613;BME280;8419;52.358;9.752;2023-08-30T03:11:18;100131.00;;;21.85;44.28
16613;BME280;8419;52.358;9.752;2023-08-30T03:14:04;100134.00;;;21.86;44.25
16613;BME280;8419;52.358;9.752;2023-08-30T03:16:50;100135.00;;;21.85;44.28
16613;BME280;8419;52.358;9.752;2023-08-30T03:19:35;100129.00;;;21.87;44.26
16613;BME280;8419;52.358;9.752;2023-08-30T03:22:21;100130.00;;;21.86;44.24
16613;BME280;8419;52.358;9.752;2023-08-30T03:25:07;100130.00;;;21.77;44.40
16613;BME280;8419;52.358;9.752;2023-08-30T03:27:54;100128.00;;;21.74;44.41
16613;BME280;8419;52.358;9.752;2023-08-30T03:30:40;100134.00;;;21.76;44.37
16613;BME280;8419;52.358;9.752;2023-08-30T03:33:26;100140.00;;;21.72;44.40
16613;BME280;8419;52.358;9.752;2023-08-30T03:36:13;100130.00;;;21.72;44.35
16613;BME280;8419;52.358;9.752;2023-08-30T03:39:00;100126.00;;;21.69;44.37
16613;BME280;8419;52.358;9.752;2023-08-30T03:41:52;100115.00;;;21.70;44.36
16613;BME280;8419;52.358;9.752;2023-08-30T03:44:38;100122.00;;;21.69;44.39
16613;BME280;8419;52.358;9.752;2023-08-30T03:47:24;100131.00;;;21.71;44.35
16613;BME280;8419;52.358;9.752;2023-08-30T03:50:09;100132.00;;;21.72;44.28
16613;BME280;8419;52.358;9.752;2023-08-30T03:52:55;100130.00;;;21.68;44.37
16613;BME280;8419;52.358;9.752;2023-08-30T03:55:41;100121.00;;;21.69;44.31
16613;BME280;8419;52.358;9.752;2023-08-30T03:58:27;100126.00;;;21.64;44.35
16613;BME280;8419;52.358;9.752;2023-08-30T04:01:12;100121.00;;;21.66;44.25
16613;BME280;8419;52.358;9.752;2023-08-30T04:03:58;100120.00;;;21.65;44.24
16613;BME280;8419;52.358;9.752;2023-08-30T04:06:44;100118.00;;;21.67;44.20
16613;BME280;8419;52.358;9.752;2023-08-30T04:09:29;100118.00;;;21.67;44.18
16613;BME280;8419;52.358;9.752;2023-08-30T04:12:14;100117.00;;;21.69;44.16
16613;BME280;8419;52.358;9.752;2023-08-30T04:15:01;100117.00;;;21.73;44.08
16613;BME280;8419;52.358;9.752;2023-08-30T04:17:47;100100.00;;;21.78;44.05
16613;BME280;8419;52.358;9.752;2023-08-30T04:20:34;100098.00;;;21.84;44.03
16613;BME280;8419;52.358;9.752;2023-08-30T04:23:19;100102.00;;;21.87;44.02
16613;BME280;8419;52.358;9.752;2023-08-30T04:26:05;100099.00;;;21.85;44.12
16613;BME280;8419;52.358;9.752;2023-08-30T04:28:51;100104.00;;;21.91;44.19
16613;BME280;8419;52.358;9.752;2023-08-30T04:31:37;100100.00;;;21.92;44.25
16613;BME280;8419;52.358;9.752;2023-08-30T04:34:22;100092.00;;;21.92;44.27
16613;BME280;8419;52.358;9.752;2023-08-30T04:37:08;100103.00;;;21.96;44.28
16613;BME280;8419;52.358;9.752;2023-08-30T04:39:53;100099.00;;;22.01;44.20
16613;BME280;8419;52.358;9.752;2023-08-30T04:42:39;100099.00;;;22.04;44.19
16613;BME280;8419;52.358;9.752;2023-08-30T04:45:25;100096.00;;;22.10;44.11
16613;BME280;8419;52.358;9.752;2023-08-30T04:48:10;100096.00;;;22.13;44.10
16613;BME280;8419;52.358;9.752;2023-08-30T04:51:01;100098.00;;;22.20;44.00
16613;BME280;8419;52.358;9.752;2023-08-30T04:53:48;100100.00;;;22.26;43.98
16613;BME280;8419;52.358;9.752;2023-08-30T04:56:34;100089.00;;;22.33;43.84
16613;BME280;8419;52.358;9.752;2023-08-30T04:59:19;100098.00;;;22.39;43.75
16613;BME280;8419;52.358;9.752;2023-08-30T05:02:05;100093.00;;;22.52;43.55
16613;BME280;8419;52.358;9.752;2023-08-30T05:04:50;100090.00;;;22.62;43.45
16613;BME280;8419;52.358;9.752;2023-08-30T05:07:36;100090.00;;;22.73;43.39
16613;BME280;8419;52.358;9.752;2023-08-30T05:10:23;100096.00;;;22.83;43.22
16613;BME280;8419;52.358;9.752;2023-08-30T05:13:09;100098.00;;;22.91;43.16
16613;BME280;8419;52.358;9.752;2023-08-30T05:15:55;100097.00;;;22.95;43.09
16613;BME280;8419;52.358;9.752;2023-08-30T05:18:41;100098.00;;;23.01;43.01
16613;BME280;8419;52.358;9.752;2023-08-30T05:21:26;100096.00;;;22.94;43.11
16613;BME280;8419;52.358;9.752;2023-08-30T05:24:20;100096.00;;;22.94;43.05
16613;BME280;8419;52.358;9.752;2023-08-30T05:27:11;100099.00;;;22.95;43.10
16613;BME280;8419;52.358;9.752;2023-08-30T05:29:57;100099.00;;;23.01;42.95
16613;BME280;8419;52.358;9.752;2023-08-30T05:32:43;100099.00;;;23.09;42.90
16613;BME280;8419;52.358;9.752;2023-08-30T05:35:29;100085.00;;;23.12;42.84
16613;BME280;8419;52.358;9.752;2023-08-30T05:38:15;100090.00;;;23.15;42.79
16613;BME280;8419;52.358;9.752;2023-08-30T05:41:00;100087.00;;;23.17;42.84
16613;BME280;8419;52.358;9.752;2023-08-30T05:43:46;100083.00;;;23.32;42.62
16613;BME280;8419;52.358;9.752;2023-08-30T05:46:31;100092.00;;;23.40;42.55
16613;BME280;8419;52.358;9.752;2023-08-30T05:49:17;100086.00;;;23.45;42.41
16613;BME280;8419;52.358;9.752;2023-08-30T05:52:03;100089.00;;;23.49;42.32
16613;BME280;8419;52.358;9.752;2023-08-30T05:54:49;100097.00;;;23.49;42.31
16613;BME280;8419;52.358;9.752;2023-08-30T05:57:35;100098.00;;;23.52;42.25
16613;BME280;8419;52.358;9.752;2023-08-30T06:00:21;100098.00;;;23.56;42.17
16613;BME280;8419;52.358;9.752;2023-08-30T06:03:07;100095.00;;;23.55;42.19
16613;BME280;8419;52.358;9.752;2023-08-30T06:05:53;100101.00;;;23.46;42.32
16613;BME280;8419;52.358;9.752;2023-08-30T06:08:38;100089.00;;;23.43;42.46
16613;BME280;8419;52.358;9.752;2023-08-30T06:11:25;100083.00;;;23.47;42.41
16613;BME280;8419;52.358;9.752;2023-08-30T06:14:11;100091.00;;;23.55;42.33
16613;BME280;8419;52.358;9.752;2023-08-30T06:16:57;100087.00;;;23.62;42.28
16613;BME280;8419;52.358;9.752;2023-08-30T06:19:43;100088.00;;;23.69;42.18
16613;BME280;8419;52.358;9.752;2023-08-30T06:22:29;100088.00;;;23.73;42.13
16613;BME280;8419;52.358;9.752;2023-08-30T06:25:15;100082.00;;;23.79;42.09
16613;BME280;8419;52.358;9.752;2023-08-30T06:28:00;100074.00;;;23.87;42.01
16613;BME280;8419;52.358;9.752;2023-08-30T06:30:47;100082.00;;;23.92;41.96
16613;BME280;8419;52.358;9.752;2023-08-30T06:33:33;100082.00;;;24.03;41.87
16613;BME280;8419;52.358;9.752;2023-08-30T06:36:19;100079.00;;;24.13;41.77
16613;BME280;8419;52.358;9.752;2023-08-30T06:39:07;100076.00;;;24.24;41.64
16613;BME280;8419;52.358;9.752;2023-08-30T06:41:53;100069.00;;;24.29;41.63
16613;BME280;8419;52.358;9.752;2023-08-30T06:44:39;100069.00;;;24.41;41.49
16613;BME280;8419;52.358;9.752;2023-08-30T06:47:25;100068.00;;;24.53;41.32
16613;BME280;8419;52.358;9.752;2023-08-30T06:50:11;100060.00;;;24.62;41.23
16613;BME280;8419;52.358;9.752;2023-08-30T06:52:56;100061.00;;;24.70;41.08
16613;BME280;8419;52.358;9.752;2023-08-30T06:55:42;100064.00;;;24.82;40.90
16613;BME280;8419;52.358;9.752;2023-08-30T06:58:29;100065.00;;;24.89;40.80
16613;BME280;8419;52.358;9.752;2023-08-30T07:01:14;100072.00;;;24.97;40.71
16613;BME280;8419;52.358;9.752;2023-08-30T07:04:01;100069.00;;;25.05;40.53
16613;BME280;8419;52.358;9.752;2023-08-30T07:06:47;100058.00;;;25.06;40.51
16613;BME280;8419;52.358;9.752;2023-08-30T07:09:32;100076.00;;;24.95;40.64
16613;BME280;8419;52.358;9.752;2023-08-30T07:12:19;100054.00;;;24.82;40.86
16613;BME280;8419;52.358;9.752;2023-08-30T07:15:06;100052.00;;;24.76;40.93
16613;BME280;8419;52.358;9.752;2023-08-30T07:17:52;100050.00;;;24.73;41.03
16613;BME280;8419;52.358;9.752;2023-08-30T07:20:40;100050.00;;;24.79;40.91
16613;BME280;8419;52.358;9.752;2023-08-30T07:23:25;100060.00;;;24.84;40.87
16613;BME280;8419;52.358;9.752;2023-08-30T07:26:11;100053.00;;;24.85;40.83
16613;BME280;8419;52.358;9.752;2023-08-30T07:28:56;100051.00;;;24.89;40.76
16613;BME280;8419;52.358;9.752;2023-08-30T07:31:42;100050.00;;;24.86;40.83
16613;BME280;8419;52.358;9.752;2023-08-30T07:34:28;100049.00;;;24.86;40.87
16613;BME280;8419;52.358;9.752;2023-08-30T07:37:20;100049.00;;;24.92;40.79
16613;BME280;8419;52.358;9.752;2023-08-30T07:40:09;100038.00;;;25.04;40.69
16613;BME280;8419;52.358;9.752;2023-08-30T07:42:55;100044.00;;;25.09;40.61
16613;BME280;8419;52.358;9.752;2023-08-30T07:45:41;100042.00;;;25.14;40.56
16613;BME280;8419;52.358;9.752;2023-08-30T07:48:27;100049.00;;;25.24;40.49
16613;BME280;8419;52.358;9.752;2023-08-30T07:51:12;100052.00;;;25.32;40.41
16613;BME280;8419;52.358;9.752;2023-08-30T07:53:58;100057.00;;;25.43;40.28
16613;BME280;8419;52.358;9.752;2023-08-30T07:56:43;100046.00;;;25.49;40.21
16613;BME280;8419;52.358;9.752;2023-08-30T07:59:32;100041.00;;;25.58;40.14
16613;BME280;8419;52.358;9.752;2023-08-30T08:02:18;100045.00;;;25.55;40.20
16613;BME280;8419;52.358;9.752;2023-08-30T08:05:04;100045.00;;;25.63;40.10
16613;BME280;8419;52.358;9.752;2023-08-30T08:07:51;100052.00;;;25.72;40.01
16613;BME280;8419;52.358;9.752;2023-08-30T08:10:37;100057.00;;;25.79;40.00
16613;BME280;8419;52.358;9.752;2023-08-30T08:13:22;100047.00;;;25.69;40.26
16613;BME280;8419;52.358;9.752;2023-08-30T08:16:09;100044.00;;;25.74;40.25
16613;BME280;8419;52.358;9.752;2023-08-30T08:18:54;100046.00;;;25.79;40.24
16613;BME280;8419;52.358;9.752;2023-08-30T08:21:40;100046.00;;;25.88;40.19
16613;BME280;8419;52.358;9.752;2023-08-30T08:24:25;100037.00;;;26.06;39.88
16613;BME280;8419;52.358;9.752;2023-08-30T08:27:11;100044.00;;;26.13;39.88
16613;BME280;8419;52.358;9.752;2023-08-30T08:29:57;100036.00;;;26.32;39.66
16613;BME280;8419;52.358;9.752;2023-08-30T08:32:45;100040.00;;;26.34;39.66
16613;BME280;8419;52.358;9.752;2023-08-30T08:35:31;100032.00;;;26.46;39.53
16613;BME280;8419;52.358;9.752;2023-08-30T08:38:17;100032.00;;;26.57;39.38
16613;BME280;8419;52.358;9.752;2023-08-30T08:41:04;100035.00;;;26.59;39.38
16613;BME280;8419;52.358;9.752;2023-08-30T08:43:50;100036.00;;;26.66;39.28
16613;BME280;8419;52.358;9.752;2023-08-30T08:46:36;100030.00;;;26.72;39.21
16613;BME280;8419;52.358;9.752;2023-08-30T08:49:24;100027.00;;;26.84;39.08
16613;BME280;8419;52.358;9.752;2023-08-30T08:52:14;100025.00;;;26.99;38.91
16613;BME280;8419;52.358;9.752;2023-08-30T08:55:00;100035.00;;;27.13;38.73
16613;BME280;8419;52.358;9.752;2023-08-30T08:57:48;100030.00;;;27.38;38.38
16613;BME280;8419;52.358;9.752;2023-08-30T09:00:34;100032.00;;;27.57;38.13
16613;BME280;8419;52.358;9.752;2023-08-30T09:03:21;100029.00;;;27.78;37.89
16613;BME280;8419;52.358;9.752;2023-08-30T09:06:08;100022.00;;;28.00;37.49
16613;BME280;8419;52.358;9.752;2023-08-30T09:08:53;100029.00;;;28.15;37.23
16613;BME280;8419;52.358;9.752;2023-08-30T09:11:39;100018.00;;;28.23;36.99
16613;BME280;8419;52.358;9.752;2023-08-30T09:14:25;100019.00;;;28.41;36.75
16613;BME280;8419;52.358;9.752;2023-08-30T09:17:10;100018.00;;;28.56;36.59
16613;BME280;8419;52.358;9.752;2023-08-30T09:20:06;100021.00;;;28.74;36.35
16613;BME280;8419;52.358;9.752;2023-08-30T09:22:52;100013.00;;;28.90;36.17
16613;BME280;8419;52.358;9.752;2023-08-30T09:25:38;100023.00;;;28.97;36.09
16613;BME280;8419;52.358;9.752;2023-08-30T09:28:26;100024.00;;;29.12;35.85
16613;BME280;8419;52.358;9.752;2023-08-30T09:31:17;100023.00;;;29.16;35.66
16613;BME280;8419;52.358;9.752;2023-08-30T09:34:05;100028.00;;;29.19;35.61
16613;BME280;8419;52.358;9.752;2023-08-30T09:36:51;100017.00;;;29.06;35.76
16613;BME280;8419;52.358;9.752;2023-08-30T09:39:37;100015.00;;;29.03;35.83
16613;BME280;8419;52.358;9.752;2023-08-30T09:42:23;100020.00;;;29.05;35.79
16613;BME280;8419;52.358;9.752;2023-08-30T09:45:18;100024.00;;;29.17;35.54
16613;BME280;8419;52.358;9.752;2023-08-30T09:48:06;100026.00;;;29.38;35.21
16613;BME280;8419;52.358;9.752;2023-08-30T09:50:54;100018.00;;;29.56;34.92
16613;BME280;8419;52.358;9.752;2023-08-30T09:53:45;100012.00;;;29.62;34.67
16613;BME280;8419;52.358;9.752;2023-08-30T09:56:35;100011.00;;;29.60;34.73
16613;BME280;8419;52.358;9.752;2023-08-30T09:59:25;100009.00;;;29.76;34.51
16613;BME280;8419;52.358;9.752;2023-08-30T10:02:11;100016.00;;;29.91;34.21
16613;BME280;8419;52.358;9.752;2023-08-30T10:04:57;100010.00;;;30.16;33.96
16613;BME280;8419;52.358;9.752;2023-08-30T10:07:44;100005.00;;;30.46;33.59
16613;BME280;8419;52.358;9.752;2023-08-30T10:10:31;100016.00;;;30.57;33.43
16613;BME280;8419;52.358;9.752;2023-08-30T10:13:17;100011.00;;;30.54;33.33
16613;BME280;8419;52.358;9.752;2023-08-30T10:16:04;100012.00;;;30.37;33.39
16613;BME280;8419;52.358;9.752;2023-08-30T10:18:52;100018.00;;;30.12;33.67
16613;BME280;8419;52.358;9.752;2023-08-30T10:21:39;100010.00;;;29.91;33.92
16613;BME280;8419;52.358;9.752;2023-08-30T10:24:27;100017.00;;;29.79;34.05
16613;BME280;8419;52.358;9.752;2023-08-30T10:27:14;100001.00;;;29.69;34.11
16613;BME280;8419;52.358;9.752;2023-08-30T10:30:02;100001.00;;;29.72;34.16
16613;BME280;8419;52.358;9.752;2023-08-30T10:32:49;100003.00;;;29.82;34.01
16613;BME280;8419;52.358;9.752;2023-08-30T10:35:34;100004.00;;;29.74;33.99
16613;BME280;8419;52.358;9.752;2023-08-30T10:38:28;100003.00;;;29.82;33.80
16613;BME280;8419;52.358;9.752;2023-08-30T10:41:13;100001.00;;;29.76;33.80
16613;BME280;8419;52.358;9.752;2023-08-30T10:44:05;100007.00;;;29.78;33.76
16613;BME280;8419;52.358;9.752;2023-08-30T10:46:54;100009.00;;;29.82;33.70
16613;BME280;8419;52.358;9.752;2023-08-30T10:49:43;99996.00;;;29.97;33.51
16613;BME280;8419;52.358;9.752;2023-08-30T10:52:28;100002.00;;;30.07;33.41
16613;BME280;8419;52.358;9.752;2023-08-30T10:55:15;99997.00;;;30.38;32.98
16613;BME280;8419;52.358;9.752;2023-08-30T10:58:02;99990.00;;;30.40;32.87
16613;BME280;8419;52.358;9.752;2023-08-30T11:00:48;99993.00;;;30.54;32.72
16613;BME280;8419;52.358;9.752;2023-08-30T11:03:35;99982.00;;;30.73;32.53
16613;BME280;8419;52.358;9.752;2023-08-30T11:06:21;99974.00;;;30.86;32.30
16613;BME280;8419;52.358;9.752;2023-08-30T11:09:08;99972.00;;;31.07;31.90
16613;BME280;8419;52.358;9.752;2023-08-30T11:11:53;99977.00;;;31.17;31.79
16613;BME280;8419;52.358;9.752;2023-08-30T11:14:41;99974.00;;;31.21;31.79
16613;BME280;8419;52.358;9.752;2023-08-30T11:17:27;99971.00;;;31.38;31.58
16613;BME280;8419;52.358;9.752;2023-08-30T11:20:15;99962.00;;;31.57;31.21
16613;BME280;8419;52.358;9.752;2023-08-30T11:23:03;99959.00;;;31.52;31.02
16613;BME280;8419;52.358;9.752;2023-08-30T11:25:51;99955.00;;;31.40;31.03
16613;BME280;8419;52.358;9.752;2023-08-30T11:28:37;99955.00;;;31.37;30.96
16613;BME280;8419;52.358;9.752;2023-08-30T11:31:28;99948.00;;;31.45;30.72
16613;BME280;8419;52.358;9.752;2023-08-30T11:34:14;99954.00;;;31.59;30.58
16613;BME280;8419;52.358;9.752;2023-08-30T11:36:59;99946.00;;;31.85;30.26
16613;BME280;8419;52.358;9.752;2023-08-30T11:39:45;99946.00;;;32.11;29.85
16613;BME280;8419;52.358;9.752;2023-08-30T11:42:31;99944.00;;;32.26;29.40
16613;BME280;8419;52.358;9.752;2023-08-30T11:45:17;99938.00;;;32.29;28.85
16613;BME280;8419;52.358;9.752;2023-08-30T11:48:05;99940.00;;;32.17;28.57
16613;BME280;8419;52.358;9.752;2023-08-30T11:50:52;99926.00;;;32.22;28.40
16613;BME280;8419;52.358;9.752;2023-08-30T11:53:39;99925.00;;;32.43;28.04
16613;BME280;8419;52.358;9.752;2023-08-30T11:56:26;99927.00;;;32.61;28.01
16613;BME280;8419;52.358;9.752;2023-08-30T11:59:19;99904.00;;;32.75;27.62
16613;BME280;8419;52.358;9.752;2023-08-30T12:02:05;99908.00;;;32.89;27.54
16613;BME280;8419;52.358;9.752;2023-08-30T12:04:52;99909.00;;;33.00;27.27
16613;BME280;8419;52.358;9.752;2023-08-30T12:07:38;99900.00;;;33.01;27.13
16613;BME280;8419;52.358;9.752;2023-08-30T12:10:25;99891.00;;;33.17;26.79
16613;BME280;8419;52.358;9.752;2023-08-30T12:13:21;99902.00;;;33.27;26.32
16613;BME280;8419;52.358;9.752;2023-08-30T12:16:06;99883.00;;;33.57;26.07
16613;BME280;8419;52.358;9.752;2023-08-30T12:18:52;99897.00;;;33.71;25.61
16613;BME280;8419;52.358;9.752;2023-08-30T12:21:42;99890.00;;;33.85;25.38
16613;BME280;8419;52.358;9.752;2023-08-30T12:24:28;99880.00;;;33.88;25.45
16613;BME280;8419;52.358;9.752;2023-08-30T12:27:13;99879.00;;;34.38;24.92
16613;BME280;8419;52.358;9.752;2023-08-30T12:29:59;99875.00;;;35.06;24.16
16613;BME280;8419;52.358;9.752;2023-08-30T12:32:45;99876.00;;;35.47;23.66
16613;BME280;8419;52.358;9.752;2023-08-30T12:35:31;99866.00;;;35.54;23.33
16613;BME280;8419;52.358;9.752;2023-08-30T12:38:16;99863.00;;;35.31;23.56
16613;BME280;8419;52.358;9.752;2023-08-30T12:41:02;99860.00;;;34.99;23.63
16613;BME280;8419;52.358;9.752;2023-08-30T12:43:48;99853.00;;;34.21;24.06
16613;BME280;8419;52.358;9.752;2023-08-30T12:46:33;99853.00;;;33.84;24.56
16613;BME280;8419;52.358;9.752;2023-08-30T12:49:19;99854.00;;;33.51;24.94
16613;BME280;8419;52.358;9.752;2023-08-30T12:52:06;99858.00;;;33.87;24.66
16613;BME280;8419;52.358;9.752;2023-08-30T12:54:51;99845.00;;;34.23;24.34
16613;BME280;8419;52.358;9.752;2023-08-30T12:57:39;99837.00;;;34.39;24.09
16613;BME280;8419;52.358;9.752;2023-08-30T13:00:24;99839.00;;;34.19;24.30
16613;BME280;8419;52.358;9.752;2023-08-30T13:03:10;99833.00;;;33.68;24.55
16613;BME280;8419;52.358;9.752;2023-08-30T13:05:56;99833.00;;;33.27;24.55
16613;BME280;8419;52.358;9.752;2023-08-30T13:08:43;99837.00;;;32.96;24.71
16613;BME280;8419;52.358;9.752;2023-08-30T13:11:29;99830.00;;;32.86;24.61
16613;BME280;8419;52.358;9.752;2023-08-30T13:14:17;99831.00;;;32.85;24.38
16613;BME280;8419;52.358;9.752;2023-08-30T13:17:03;99827.00;;;32.89;24.46
16613;BME280;8419;52.358;9.752;2023-08-30T13:19:49;99829.00;;;33.04;24.32
16613;BME280;8419;52.358;9.752;2023-08-30T13:22:34;99831.00;;;33.17;24.30
16613;BME280;8419;52.358;9.752;2023-08-30T13:25:20;99836.00;;;33.25;24.29
16613;BME280;8419;52.358;9.752;2023-08-30T13:28:06;99822.00;;;33.05;24.38
16613;BME280;8419;52.358;9.752;2023-08-30T13:30:52;99836.00;;;32.62;24.93
16613;BME280;8419;52.358;9.752;2023-08-30T13:33:38;99828.00;;;32.12;25.43
16613;BME280;8419;52.358;9.752;2023-08-30T13:36:24;99833.00;;;31.98;25.60
16613;BME280;8419;52.358;9.752;2023-08-30T13:39:10;99818.00;;;31.73;25.75
16613;BME280;8419;52.358;9.752;2023-08-30T13:41:57;99821.00;;;31.71;25.83
16613;BME280;8419;52.358;9.752;2023-08-30T13:44:42;99819.00;;;31.85;25.77
16613;BME280;8419;52.358;9.752;2023-08-30T13:47:30;99811.00;;;31.88;25.88
16613;BME280;8419;52.358;9.752;2023-08-30T13:50:16;99819.00;;;31.93;25.86
16613;BME280;8419;52.358;9.752;2023-08-30T13:53:02;99823.00;;;31.92;25.93
16613;BME280;8419;52.358;9.752;2023-08-30T13:55:48;99825.00;;;31.85;26.05
16613;BME280;8419;52.358;9.752;2023-08-30T13:58:33;99824.00;;;31.61;26.43
16613;BME280;8419;52.358;9.752;2023-08-30T14:01:19;99817.00;;;31.42;26.70
16613;BME280;8419;52.358;9.752;2023-08-30T14:04:05;99809.00;;;31.14;26.94
16613;BME280;8419;52.358;9.752;2023-08-30T14:06:53;99802.00;;;30.86;27.36
16613;BME280;8419;52.358;9.752;2023-08-30T14:09:38;99809.00;;;30.64;27.62
16613;BME280;8419;52.358;9.752;2023-08-30T14:12:24;99804.00;;;30.41;27.88
16613;BME280;8419;52.358;9.752;2023-08-30T14:15:10;99805.00;;;30.28;28.11
16613;BME280;8419;52.358;9.752;2023-08-30T14:17:57;99804.00;;;30.23;28.17
16613;BME280;8419;52.358;9.752;2023-08-30T14:20:44;99801.00;;;30.18;28.25
16613;BME280;8419;52.358;9.752;2023-08-30T14:23:30;99812.00;;;30.18;28.25
16613;BME280;8419;52.358;9.752;2023-08-30T14:26:15;99803.00;;;30.07;28.33
16613;BME280;8419;52.358;9.752;2023-08-30T14:29:01;99813.00;;;30.10;28.33
16613;BME280;8419;52.358;9.752;2023-08-30T14:31:47;99810.00;;;30.11;28.33
16613;BME280;8419;52.358;9.752;2023-08-30T14:34:32;99812.00;;;30.11;28.38
16613;BME280;8419;52.358;9.752;2023-08-30T14:37:18;99804.00;;;30.11;28.39
16613;BME280;8419;52.358;9.752;2023-08-30T14:40:03;99807.00;;;30.13;28.27
16613;BME280;8419;52.358;9.752;2023-08-30T14:42:49;99807.00;;;29.94;28.55
16613;BME280;8419;52.358;9.752;2023-08-30T14:45:34;99807.00;;;29.91;28.62